Time;durP1;ratioP1;P1;durP2;ratioP2;P2;SDS_P1;SDS_P2;PMS_P1;PMS_P2;Temp;Humidity;BMP_temperature;BMP_pressure;BME280_temperature;BME280_humidity;BME280_pressure;Samples;Min_cycle;Max_cycle;Signal;HPM_P1;HPM_P2
2021/07/03 00:00:11;;;;;;;8.93;3.80;;;;;;;25.03;57.14;100750.19;1751856;81;21031;-50
2021/07/03 00:02:38;;;;;;;5.80;3.30;;;;;;;25.01;57.36;100750.80;1751155;80;21671;-50
2021/07/03 00:05:06;;;;;;;5.65;3.52;;;;;;;24.98;57.35;100750.55;1753588;81;21086;-50
2021/07/03 00:07:33;;;;;;;9.00;4.10;;;;;;;24.97;57.38;100742.70;1759750;80;21029;-50
2021/07/03 00:09:59;;;;;;;9.45;3.75;;;;;;;24.95;57.49;100741.98;1762598;80;21046;-50
2021/07/03 00:12:26;;;;;;;7.03;3.80;;;;;;;24.94;57.64;100746.45;1752422;80;20994;-49
2021/07/03 00:14:53;;;;;;;10.20;3.72;;;;;;;24.93;57.58;100745.25;1757419;80;21042;-50
2021/07/03 00:17:20;;;;;;;9.53;3.22;;;;;;;24.91;57.56;100743.20;1743069;80;21038;-50
2021/07/03 00:19:48;;;;;;;5.40;3.12;;;;;;;24.90;57.52;100741.50;1746146;81;21581;-50
2021/07/03 00:22:15;;;;;;;7.42;3.55;;;;;;;24.89;57.57;100741.16;1753261;80;21086;-50
2021/07/03 00:24:41;;;;;;;6.03;3.83;;;;;;;24.88;57.52;100743.44;1745173;80;20970;-49
2021/07/03 00:27:08;;;;;;;6.90;3.80;;;;;;;24.88;57.68;100744.77;1754754;80;21070;-50
2021/07/03 00:29:35;;;;;;;9.73;4.00;;;;;;;24.87;57.89;100741.77;1764937;80;21073;-49
2021/07/03 00:32:03;;;;;;;5.20;3.40;;;;;;;24.87;57.90;100744.42;1747118;80;20999;-49
2021/07/03 00:34:30;;;;;;;7.12;3.50;;;;;;;24.87;57.89;100748.42;1757401;80;21466;-50
2021/07/03 00:36:56;;;;;;;4.28;3.12;;;;;;;24.86;57.83;100745.37;1759160;80;21015;-48
2021/07/03 00:39:23;;;;;;;6.75;3.85;;;;;;;24.84;57.70;100739.34;1752449;80;21548;-50
2021/07/03 00:41:49;;;;;;;5.85;3.85;;;;;;;24.82;57.63;100735.95;1762831;80;20988;-49
2021/07/03 00:44:28;;;;;;;7.80;3.70;;;;;;;24.82;57.64;100738.61;1751405;80;21104;-49
2021/07/03 00:46:55;;;;;;;6.72;3.50;;;;;;;24.80;57.80;100737.42;1766577;80;21065;-49
2021/07/03 00:49:22;;;;;;;10.35;3.80;;;;;;;24.79;57.83;100733.56;1750639;81;21571;-50
2021/07/03 00:51:50;;;;;;;4.92;3.52;;;;;;;24.78;57.74;100739.83;1756453;80;21026;-49
2021/07/03 00:54:16;;;;;;;8.53;3.67;;;;;;;24.77;57.68;100735.50;1752764;80;21008;-50
2021/07/03 00:56:43;;;;;;;7.17;3.85;;;;;;;24.74;57.59;100737.06;1751908;80;21018;-49
2021/07/03 00:59:10;;;;;;;8.48;4.47;;;;;;;24.71;57.57;100728.80;1759590;80;21006;-49
2021/07/03 01:01:37;;;;;;;6.92;3.95;;;;;;;24.70;57.72;100731.59;1756040;80;21038;-50
2021/07/03 01:04:05;;;;;;;8.88;4.60;;;;;;;24.68;57.75;100726.88;1751338;80;21612;-50
2021/07/03 01:06:32;;;;;;;13.13;3.98;;;;;;;24.66;57.81;100728.81;1753014;80;21014;-49
2021/07/03 01:09:00;;;;;;;6.97;3.80;;;;;;;24.65;57.91;100728.44;1755332;80;21480;-49
2021/07/03 01:11:28;;;;;;;6.12;3.35;;;;;;;24.63;57.90;100721.07;1730198;81;21014;-49
2021/07/03 01:13:55;;;;;;;7.08;3.37;;;;;;;24.61;57.92;100721.67;1753780;80;21077;-49
2021/07/03 01:16:22;;;;;;;7.15;3.77;;;;;;;24.57;57.81;100721.56;1756153;80;20999;-49
2021/07/03 01:18:49;;;;;;;7.25;3.85;;;;;;;24.53;57.73;100721.45;1771520;80;21557;-49
2021/07/03 01:21:16;;;;;;;8.95;3.72;;;;;;;24.52;57.77;100723.77;1759834;80;20998;-50
2021/07/03 01:23:44;;;;;;;7.67;3.12;;;;;;;24.51;57.86;100723.38;1759049;80;21049;-49
2021/07/03 01:26:10;;;;;;;5.60;3.83;;;;;;;24.50;57.97;100724.38;1751973;81;21427;-49
2021/07/03 01:28:38;;;;;;;12.55;4.20;;;;;;;24.45;58.09;100728.72;1761732;80;21500;-48
2021/07/03 01:31:05;;;;;;;5.53;3.58;;;;;;;24.43;58.22;100731.13;1755468;80;21045;-48
2021/07/03 01:33:34;;;;;;;7.62;4.00;;;;;;;24.42;58.39;100728.13;1753074;80;21058;-49
2021/07/03 01:36:00;;;;;;;7.83;3.75;;;;;;;24.44;58.32;100727.52;1757177;80;21002;-49
2021/07/03 01:38:28;;;;;;;5.62;3.80;;;;;;;24.43;58.24;100725.81;1764601;80;21123;-49
2021/07/03 01:40:56;;;;;;;9.35;3.75;;;;;;;24.43;58.21;100720.49;1763857;80;21057;-49
2021/07/03 01:43:27;;;;;;;5.33;3.85;;;;;;;24.42;58.29;100719.64;1755729;80;21000;-50
2021/07/03 01:45:55;;;;;;;7.87;3.27;;;;;;;24.41;58.45;100725.09;1760300;80;21030;-50
2021/07/03 01:48:27;;;;;;;7.65;4.10;;;;;;;24.40;58.59;100728.22;1763918;80;21522;-50
2021/07/03 01:50:55;;;;;;;5.97;3.42;;;;;;;24.40;58.59;100722.09;1742666;80;21034;-50
2021/07/03 01:53:23;;;;;;;7.75;3.55;;;;;;;24.38;58.57;100720.85;1752906;80;21022;-49
2021/07/03 01:55:50;;;;;;;8.20;3.37;;;;;;;24.38;58.59;100721.36;1759743;80;21490;-49
2021/07/03 01:58:22;;;;;;;6.28;3.95;;;;;;;24.37;58.55;100718.33;1771140;80;21518;-50
2021/07/03 02:00:58;;;;;;;10.95;3.58;;;;;;;24.37;58.69;100715.66;1735958;80;21029;-50
2021/07/03 02:03:26;;;;;;;8.53;4.12;;;;;;;24.37;58.76;100705.02;1750133;80;21021;-50
2021/07/03 02:05:53;;;;;;;5.58;3.33;;;;;;;24.37;58.84;100705.88;1766519;80;21023;-50
2021/07/03 02:08:21;;;;;;;14.13;3.67;;;;;;;24.37;58.80;100710.34;1761458;80;21069;-50
2021/07/03 02:10:50;;;;;;;6.28;3.45;;;;;;;24.37;58.75;100708.54;1773828;80;21030;-50
2021/07/03 02:13:17;;;;;;;7.78;3.65;;;;;;;24.36;58.70;100705.50;1754555;80;20999;-50
2021/07/03 02:15:44;;;;;;;7.62;3.52;;;;;;;24.35;58.72;100702.50;1750351;81;21568;-49
2021/07/03 02:18:14;;;;;;;6.17;3.37;;;;;;;24.33;58.75;100704.43;1671290;84;21124;-50
2021/07/03 02:20:42;;;;;;;4.50;3.67;;;;;;;24.33;58.82;100696.93;1673329;84;21081;-49
2021/07/03 02:23:11;;;;;;;11.70;3.67;;;;;;;24.31;58.76;100694.40;1656944;85;21019;-50
2021/07/03 02:25:39;;;;;;;8.33;3.70;;;;;;;24.30;58.86;100698.52;1664822;85;21030;-49
2021/07/03 02:28:08;;;;;;;11.05;3.67;;;;;;;24.28;58.95;100700.45;1664342;84;21070;-51
2021/07/03 02:30:36;;;;;;;6.62;3.60;;;;;;;24.26;58.89;100703.21;1684459;83;21561;-49
2021/07/03 02:33:04;;;;;;;8.80;4.30;;;;;;;24.24;59.02;100702.48;1671129;83;21070;-50
2021/07/03 02:35:32;;;;;;;6.87;3.92;;;;;;;24.24;59.27;100695.84;1608074;87;21079;-50
2021/07/03 02:37:59;;;;;;;5.37;3.90;;;;;;;24.23;59.27;100697.64;1667518;84;22305;-49
2021/07/03 02:40:26;;;;;;;6.45;4.00;;;;;;;24.25;59.25;100706.34;1612502;88;21094;-49
2021/07/03 02:42:53;;;;;;;14.25;4.42;;;;;;;24.24;59.04;100712.65;1611032;87;21094;-49
2021/07/03 02:45:20;;;;;;;6.72;3.87;;;;;;;24.22;59.04;100721.23;1655039;85;21054;-50
2021/07/03 02:47:47;;;;;;;10.23;4.37;;;;;;;24.22;58.88;100723.89;1632770;84;21090;-50
2021/07/03 02:50:17;;;;;;;7.15;3.83;;;;;;;24.21;58.95;100720.85;1663464;85;21561;-49
2021/07/03 02:52:43;;;;;;;12.07;3.92;;;;;;;24.21;59.19;100720.85;1637139;86;21052;-50
2021/07/03 02:55:12;;;;;;;9.48;3.90;;;;;;;24.21;59.09;100715.53;1685473;85;21074;-50
2021/07/03 02:57:39;;;;;;;8.30;4.42;;;;;;;24.22;59.16;100719.91;1616596;88;22055;-50
2021/07/03 03:00:10;;;;;;;8.95;4.15;;;;;;;24.22;59.11;100725.22;1602320;88;21169;-50
2021/07/03 03:02:37;;;;;;;14.87;4.15;;;;;;;24.23;59.13;100717.59;1577690;90;21130;-50
2021/07/03 03:05:07;;;;;;;7.83;3.60;;;;;;;24.25;59.24;100730.28;1586349;90;21143;-50
2021/07/03 03:07:36;;;;;;;14.20;4.08;;;;;;;24.23;59.34;100725.56;1587997;89;21059;-49
2021/07/03 03:10:05;;;;;;;13.25;5.05;;;;;;;24.25;59.27;100728.95;1588762;90;21087;-50
2021/07/03 03:12:32;;;;;;;7.37;4.17;;;;;;;24.27;59.34;100730.66;1618249;87;21574;-49
2021/07/03 03:14:59;;;;;;;14.83;4.97;;;;;;;24.30;59.28;100726.44;1610995;86;21081;-49
2021/07/03 03:17:27;;;;;;;7.37;4.08;;;;;;;24.30;59.33;100723.78;1630181;87;21503;-50
2021/07/03 03:19:56;;;;;;;9.18;5.17;;;;;;;24.33;59.33;100727.52;1639408;87;21574;-50
2021/07/03 03:22:23;;;;;;;13.93;5.03;;;;;;;24.36;59.15;100728.62;1620769;87;21053;-50
2021/07/03 03:24:50;;;;;;;9.98;4.95;;;;;;;24.35;59.05;100730.90;1628983;87;21565;-50
2021/07/03 03:27:17;;;;;;;17.55;5.90;;;;;;;24.35;59.09;100729.56;1609641;87;21163;-50
2021/07/03 03:29:43;;;;;;;9.43;4.78;;;;;;;24.36;59.21;100728.11;1629982;87;21053;-50
2021/07/03 03:32:10;;;;;;;9.78;4.40;;;;;;;24.38;59.05;100720.03;1620688;88;21295;-49
2021/07/03 03:34:37;;;;;;;11.57;5.08;;;;;;;24.40;58.90;100717.59;1632466;87;21498;-50
2021/07/03 03:37:06;;;;;;;10.43;5.42;;;;;;;24.42;59.00;100725.47;1646845;86;21555;-50
2021/07/03 03:39:33;;;;;;;10.13;5.80;;;;;;;24.43;58.84;100724.01;1629767;87;21094;-50
2021/07/03 03:42:01;;;;;;;8.68;4.97;;;;;;;24.46;59.11;100729.06;1604752;87;21550;-49
2021/07/03 03:44:27;;;;;;;10.35;5.03;;;;;;;24.55;59.54;100732.81;1626227;86;21062;-50
2021/07/03 03:46:54;;;;;;;8.15;5.20;;;;;;;24.73;59.55;100728.70;1636317;86;21107;-50
2021/07/03 03:49:22;;;;;;;12.88;5.70;;;;;;;25.09;58.95;100724.39;1618708;87;21100;-49
2021/07/03 03:51:52;;;;;;;13.18;5.72;;;;;;;25.67;57.75;100722.59;1645626;85;21028;-50
2021/07/03 03:54:21;;;;;;;12.88;6.15;;;;;;;26.44;56.15;100728.36;1613682;87;21605;-50
2021/07/03 03:57:21;;;;;;;15.63;6.00;;;;;;;27.29;54.15;100734.38;1654287;86;21085;-49
2021/07/03 03:59:17;;;;;;;9.05;5.67;;;;;;;28.10;51.63;100721.02;1616769;87;21085;-50
2021/07/03 04:01:44;;;;;;;10.03;6.10;;;;;;;28.90;49.55;100720.71;1638892;86;21542;-50
2021/07/03 04:04:14;;;;;;;15.90;6.62;;;;;;;29.60;48.05;100719.03;1624174;86;21561;-50
2021/07/03 04:06:42;;;;;;;12.68;6.80;;;;;;;30.25;46.36;100710.94;1696605;82;21528;-50
2021/07/03 04:09:09;;;;;;;13.35;6.28;;;;;;;30.71;44.67;100709.66;1695910;84;21071;-49
2021/07/03 04:11:37;;;;;;;14.00;6.90;;;;;;;30.84;44.08;100716.72;1696358;83;21043;-49
2021/07/03 04:14:04;;;;;;;14.40;6.40;;;;;;;30.72;43.91;100712.66;1695391;83;21000;-51
2021/07/03 04:16:31;;;;;;;13.90;7.40;;;;;;;30.47;44.11;100721.14;1708090;83;21064;-50
2021/07/03 04:18:59;;;;;;;11.18;6.95;;;;;;;30.14;44.56;100716.09;1701880;84;21082;-49
2021/07/03 04:21:26;;;;;;;9.65;6.85;;;;;;;29.81;45.23;100724.08;1699268;83;21464;-49
2021/07/03 04:23:53;;;;;;;11.28;7.00;;;;;;;29.49;45.85;100726.00;1696334;83;21035;-50
2021/07/03 04:26:20;;;;;;;11.57;7.35;;;;;;;29.17;46.34;100728.37;1751232;80;21061;-49
2021/07/03 04:28:48;;;;;;;11.05;7.60;;;;;;;28.84;46.91;100728.02;1764244;80;21508;-50
2021/07/03 04:31:15;;;;;;;17.10;7.87;;;;;;;28.54;47.66;100729.61;1761998;80;21021;-49
2021/07/03 04:33:43;;;;;;;10.65;8.50;;;;;;;28.26;48.34;100727.92;1740613;80;21049;-50
2021/07/03 04:36:09;;;;;;;16.37;8.40;;;;;;;27.99;49.19;100727.38;1749120;80;20979;-50
2021/07/03 04:38:36;;;;;;;10.78;8.25;;;;;;;27.76;49.67;100727.84;1755636;80;21058;-49
2021/07/03 04:41:04;;;;;;;12.63;9.18;;;;;;;27.54;50.14;100724.97;1758152;80;21007;-50
2021/07/03 04:43:33;;;;;;;13.53;8.70;;;;;;;27.32;50.68;100731.44;1757631;80;21521;-50
2021/07/03 04:46:00;;;;;;;17.87;10.35;;;;;;;27.13;51.29;100732.75;1761703;80;21478;-48
2021/07/03 04:48:27;;;;;;;10.63;9.33;;;;;;;26.97;52.00;100735.13;1772308;80;20991;-49
2021/07/03 04:50:56;;;;;;;18.48;10.05;;;;;;;26.84;52.46;100730.53;1756531;80;21024;-49
2021/07/03 04:53:22;;;;;;;11.38;9.50;;;;;;;26.76;52.97;100733.05;1759750;80;21505;-50
2021/07/03 04:55:49;;;;;;;10.60;8.78;;;;;;;26.68;53.35;100727.52;1769033;80;20986;-50
2021/07/03 04:58:16;;;;;;;12.03;8.65;;;;;;;26.64;53.64;100727.43;1769189;80;21517;-50
2021/07/03 05:00:43;;;;;;;11.08;9.00;;;;;;;26.59;53.88;100731.84;1754413;80;21037;-50
2021/07/03 05:03:10;;;;;;;10.50;8.20;;;;;;;26.57;53.83;100733.80;1749693;80;21003;-49
2021/07/03 05:05:37;;;;;;;10.05;9.05;;;;;;;26.56;53.79;100741.44;1768488;80;21062;-49
2021/07/03 05:08:04;;;;;;;15.18;8.88;;;;;;;26.57;54.07;100739.62;1754394;80;21057;-50
2021/07/03 05:10:33;;;;;;;11.10;8.25;;;;;;;26.66;54.13;100737.97;1751123;80;21019;-50
2021/07/03 05:13:01;;;;;;;9.80;7.97;;;;;;;26.66;54.13;100737.97;1742571;81;21059;-48
2021/07/03 05:15:29;;;;;;;10.43;8.35;;;;;;;26.71;54.29;100733.89;1768494;80;21039;-50
2021/07/03 05:17:57;;;;;;;10.35;8.55;;;;;;;26.82;54.13;100740.50;1752936;80;21099;-49
2021/07/03 05:20:26;;;;;;;11.30;8.78;;;;;;;27.03;53.91;100735.06;1763891;80;21517;-49
2021/07/03 05:22:54;;;;;;;10.75;7.72;;;;;;;27.03;53.91;100735.06;1763267;80;21005;-49
2021/07/03 05:25:21;;;;;;;11.35;7.92;;;;;;;27.12;53.76;100727.05;1762051;80;21023;-49
2021/07/03 05:27:48;;;;;;;9.23;7.50;;;;;;;27.26;53.80;100732.00;1754921;81;21045;-49
2021/07/03 05:30:15;;;;;;;12.80;7.67;;;;;;;27.45;53.34;100739.69;1773940;80;21053;-49
2021/07/03 05:32:42;;;;;;;8.38;7.62;;;;;;;27.56;52.77;100739.52;1747253;81;21532;-49
2021/07/03 05:35:12;;;;;;;13.00;7.50;;;;;;;27.67;52.79;100732.21;1778251;80;21062;-49
2021/07/03 05:37:43;;;;;;;8.13;7.30;;;;;;;27.78;52.42;100733.89;1757601;80;20999;-49
2021/07/03 05:40:13;;;;;;;11.57;7.97;;;;;;;27.86;52.30;100736.69;1757657;80;20991;-50
2021/07/03 05:42:40;;;;;;;8.98;7.22;;;;;;;27.93;52.13;100735.95;1763303;80;21081;-49
2021/07/03 05:45:08;;;;;;;12.07;7.80;;;;;;;28.01;51.67;100733.91;1752020;80;21034;-50
2021/07/03 05:47:36;;;;;;;11.43;7.53;;;;;;;28.07;51.32;100733.33;1769339;80;21066;-49
2021/07/03 05:50:05;;;;;;;7.80;7.00;;;;;;;28.13;50.96;100730.10;1772860;80;21022;-50
2021/07/03 05:52:32;;;;;;;13.22;7.92;;;;;;;28.17;50.86;100731.49;1768500;80;21014;-49
2021/07/03 05:54:59;;;;;;;8.80;7.83;;;;;;;28.21;51.23;100724.86;1759126;80;21081;-49
2021/07/03 05:57:28;;;;;;;9.65;6.45;;;;;;;28.27;50.92;100724.27;1748850;80;20980;-49
2021/07/03 05:59:54;;;;;;;8.68;7.08;;;;;;;28.34;50.64;100724.02;1751512;81;21392;-49
2021/07/03 06:02:21;;;;;;;9.18;7.55;;;;;;;28.43;50.41;100725.81;1751942;81;20991;-49
2021/07/03 06:04:47;;;;;;;7.58;6.87;;;;;;;28.52;50.25;100723.56;1756774;80;21506;-48
2021/07/03 06:07:15;;;;;;;11.80;7.20;;;;;;;28.59;50.04;100718.01;1758155;80;21046;-48
2021/07/03 06:09:42;;;;;;;8.03;7.22;;;;;;;28.69;49.64;100720.13;1757212;80;21046;-49
2021/07/03 06:12:09;;;;;;;8.93;6.42;;;;;;;28.77;49.64;100718.87;1758732;80;21087;-48
2021/07/03 06:14:36;;;;;;;7.37;6.62;;;;;;;28.87;49.31;100716.16;1756586;81;20984;-49
2021/07/03 06:17:03;;;;;;;9.05;6.72;;;;;;;28.96;49.16;100709.39;1752578;81;21580;-48
2021/07/03 06:19:30;;;;;;;9.43;6.80;;;;;;;29.09;48.91;100705.48;1749611;81;21096;-49
2021/07/03 06:21:56;;;;;;;7.65;6.55;;;;;;;29.29;49.22;100703.87;1762909;80;21018;-48
2021/07/03 06:24:23;;;;;;;7.17;6.53;;;;;;;29.54;48.81;100699.05;1755567;80;21015;-48
2021/07/03 06:26:49;;;;;;;10.70;6.65;;;;;;;29.78;47.88;100706.45;1759970;80;21529;-49
2021/07/03 06:29:16;;;;;;;11.50;6.65;;;;;;;29.95;47.28;100704.23;1747225;80;21037;-49
2021/07/03 06:31:42;;;;;;;15.30;7.30;;;;;;;30.06;46.96;100700.43;1743183;80;21054;-49
2021/07/03 06:34:09;;;;;;;9.90;7.33;;;;;;;30.08;47.28;100695.25;1760826;81;20995;-49
2021/07/03 06:36:36;;;;;;;8.73;7.28;;;;;;;30.05;46.89;100699.59;1772583;80;21022;-49
2021/07/03 06:39:03;;;;;;;9.33;7.83;;;;;;;30.00;47.13;100701.07;1784371;80;21007;-48
2021/07/03 06:41:30;;;;;;;9.78;7.00;;;;;;;29.93;47.14;100702.20;1759047;80;21002;-48
2021/07/03 06:43:56;;;;;;;7.30;6.62;;;;;;;29.82;47.34;100698.43;1758166;80;21006;-48
2021/07/03 06:46:23;;;;;;;9.15;7.67;;;;;;;29.72;47.58;100692.30;1734176;80;21045;-48
2021/07/03 06:48:50;;;;;;;11.75;7.83;;;;;;;29.64;48.10;100687.73;1750743;80;21584;-49
2021/07/03 06:51:17;;;;;;;8.30;6.70;;;;;;;29.57;48.48;100692.55;1762763;80;21003;-48
2021/07/03 06:53:43;;;;;;;8.20;6.87;;;;;;;29.48;48.78;100686.77;1748965;80;21058;-48
2021/07/03 06:56:10;;;;;;;9.50;6.28;;;;;;;29.42;49.17;100685.56;1755461;80;21018;-48
2021/07/03 06:58:37;;;;;;;7.65;6.70;;;;;;;29.35;49.35;100679.12;1755315;80;20990;-48
2021/07/03 07:01:04;;;;;;;7.67;6.70;;;;;;;29.31;49.52;100682.27;1759308;80;21026;-48
2021/07/03 07:03:31;;;;;;;7.08;6.15;;;;;;;29.26;49.75;100689.94;1764702;80;21022;-49
2021/07/03 07:05:58;;;;;;;11.43;7.37;;;;;;;29.22;50.04;100691.25;1757355;80;21009;-48
2021/07/03 07:08:24;;;;;;;7.60;6.85;;;;;;;29.19;50.21;100688.86;1761558;80;21062;-47
2021/07/03 07:10:51;;;;;;;7.67;6.83;;;;;;;29.21;50.51;100686.87;1767017;80;20983;-49
2021/07/03 07:13:19;;;;;;;8.30;7.35;;;;;;;29.20;50.70;100687.88;1752437;81;22176;-47
2021/07/03 07:15:47;;;;;;;7.20;6.50;;;;;;;29.19;50.77;100680.82;1742136;80;21078;-49
2021/07/03 07:18:14;;;;;;;9.10;6.90;;;;;;;29.18;50.94;100680.50;1759531;80;21092;-48
2021/07/03 07:20:41;;;;;;;7.33;6.50;;;;;;;29.18;51.30;100688.02;1759507;80;20978;-48
2021/07/03 07:23:09;;;;;;;7.80;6.95;;;;;;;29.21;51.11;100686.38;1757121;80;21533;-48
2021/07/03 07:25:36;;;;;;;8.48;7.08;;;;;;;29.26;51.12;100684.58;1760753;80;21053;-48
2021/07/03 07:28:04;;;;;;;9.30;6.92;;;;;;;29.28;50.90;100679.42;1745622;80;21510;-47
2021/07/03 07:30:30;;;;;;;12.75;11.45;;;;;;;29.33;50.70;100672.23;1748135;80;21091;-48
2021/07/03 07:32:57;;;;;;;7.92;7.30;;;;;;;29.37;50.77;100681.64;1751233;80;21087;-47
2021/07/03 07:35:24;;;;;;;10.08;7.33;;;;;;;29.40;50.97;100683.53;1756864;80;21039;-48
2021/07/03 07:37:51;;;;;;;7.83;6.65;;;;;;;29.41;50.76;100677.65;1759291;80;21533;-49
2021/07/03 07:40:18;;;;;;;7.92;7.00;;;;;;;29.39;50.61;100676.97;1761353;80;21061;-48
2021/07/03 07:42:46;;;;;;;8.48;7.60;;;;;;;29.36;50.80;100675.95;1762716;80;21047;-49
2021/07/03 07:45:13;;;;;;;9.40;7.08;;;;;;;29.32;51.07;100669.22;1756146;80;21623;-48
2021/07/03 07:47:40;;;;;;;11.15;7.12;;;;;;;29.31;51.00;100675.56;1759483;80;21009;-48
2021/07/03 07:50:09;;;;;;;8.43;6.55;;;;;;;29.28;51.15;100671.87;1756354;80;21047;-48
2021/07/03 07:52:37;;;;;;;6.92;6.22;;;;;;;29.27;51.43;100675.53;1763100;80;21018;-49
2021/07/03 07:55:07;;;;;;;8.48;7.08;;;;;;;29.28;51.51;100682.59;1738736;81;21059;-48
2021/07/03 07:57:34;;;;;;;8.03;7.33;;;;;;;29.31;51.61;100682.27;1758429;80;21033;-48
2021/07/03 08:00:04;;;;;;;11.50;8.23;;;;;;;29.32;50.98;100682.62;1745951;80;21026;-49
2021/07/03 08:02:33;;;;;;;8.15;7.35;;;;;;;29.31;51.32;100692.98;1762306;80;21073;-48
2021/07/03 08:04:59;;;;;;;11.05;7.25;;;;;;;29.30;51.33;100699.36;1770387;80;21006;-48
2021/07/03 08:07:26;;;;;;;9.63;8.25;;;;;;;29.27;51.13;100699.65;1761050;80;21062;-48
2021/07/03 08:09:53;;;;;;;9.35;7.80;;;;;;;29.23;51.36;100703.64;1758074;80;20994;-49
2021/07/03 08:12:19;;;;;;;7.35;6.65;;;;;;;29.23;51.71;100709.84;1751038;80;21015;-49
2021/07/03 08:14:46;;;;;;;7.83;6.70;;;;;;;29.23;51.44;100708.51;1752487;80;21054;-48
2021/07/03 08:17:13;;;;;;;7.87;6.60;;;;;;;29.22;51.33;100708.67;1743390;80;21100;-48
2021/07/03 08:19:40;;;;;;;9.55;6.90;;;;;;;29.22;51.31;100712.20;1760861;80;21474;-48
2021/07/03 08:22:07;;;;;;;6.83;6.22;;;;;;;29.21;51.55;100712.33;1756729;80;21022;-48
2021/07/03 08:24:34;;;;;;;7.15;6.60;;;;;;;29.22;51.43;100721.58;1747836;80;21148;-48
2021/07/03 08:27:01;;;;;;;7.37;6.67;;;;;;;29.27;51.57;100722.43;1758482;80;21046;-48
2021/07/03 08:29:27;;;;;;;8.45;6.62;;;;;;;29.33;51.05;100729.86;1762117;80;21030;-49
2021/07/03 08:31:56;;;;;;;7.03;6.33;;;;;;;29.31;51.16;100731.36;1748786;80;21046;-48
2021/07/03 08:34:22;;;;;;;8.00;6.83;;;;;;;29.30;51.00;100727.50;1751922;80;21038;-48
2021/07/03 08:36:49;;;;;;;7.33;6.62;;;;;;;29.31;51.21;100727.83;1750949;81;21046;-48
2021/07/03 08:39:16;;;;;;;6.75;6.15;;;;;;;29.33;50.82;100725.83;1755104;81;21489;-49
2021/07/03 08:41:43;;;;;;;7.95;7.15;;;;;;;29.32;50.63;100726.84;1759980;80;21088;-47
2021/07/03 08:44:11;;;;;;;8.13;7.30;;;;;;;29.31;50.58;100731.84;1750965;80;21054;-48
2021/07/03 08:46:37;;;;;;;7.20;6.60;;;;;;;29.29;50.85;100730.67;1760443;80;20995;-48
2021/07/03 08:49:04;;;;;;;8.33;6.47;;;;;;;29.29;50.94;100723.12;1766905;80;21509;-49
2021/07/03 08:51:31;;;;;;;8.05;6.58;;;;;;;29.31;50.84;100727.34;1754871;81;21046;-48
2021/07/03 08:53:58;;;;;;;8.63;7.50;;;;;;;29.33;50.52;100724.00;1760142;80;20996;-48
2021/07/03 08:56:25;;;;;;;7.62;6.15;;;;;;;29.34;50.66;100720.84;1753635;81;21505;-48
2021/07/03 08:58:52;;;;;;;7.87;6.60;;;;;;;29.35;50.63;100721.16;1763164;80;21490;-47
2021/07/03 09:01:19;;;;;;;8.80;6.85;;;;;;;29.39;50.67;100734.11;1742098;81;21058;-49
2021/07/03 09:03:55;;;;;;;6.65;5.90;;;;;;;29.42;50.63;100736.98;1753352;80;21053;-49
2021/07/03 09:06:31;;;;;;;7.40;6.70;;;;;;;29.42;50.42;100735.65;1750671;80;21151;-47
2021/07/03 09:09:00;;;;;;;7.05;6.53;;;;;;;29.45;51.05;100736.69;1697963;82;21125;-48
2021/07/03 09:11:27;;;;;;;6.80;6.20;;;;;;;29.51;50.89;100740.09;1721099;82;21016;-48
2021/07/03 09:14:00;;;;;;;7.03;6.35;;;;;;;29.55;50.47;100726.20;1660481;84;21130;-48
2021/07/03 09:16:31;;;;;;;10.03;7.33;;;;;;;29.58;49.93;100735.28;1675087;84;21041;-48
2021/07/03 09:19:01;;;;;;;7.08;6.47;;;;;;;29.60;50.29;100733.78;1687358;83;21535;-48
2021/07/03 09:21:30;;;;;;;7.05;6.35;;;;;;;29.61;50.25;100735.48;1710723;83;21080;-48
2021/07/03 09:23:59;;;;;;;7.10;6.42;;;;;;;29.64;50.06;100735.16;1697304;82;21090;-48
2021/07/03 09:26:25;;;;;;;8.33;6.60;;;;;;;29.63;49.97;100730.80;1680506;84;21052;-49
2021/07/03 09:28:53;;;;;;;9.08;6.28;;;;;;;29.61;49.77;100732.80;1710945;82;21036;-48
2021/07/03 09:31:20;;;;;;;7.12;6.40;;;;;;;29.58;50.00;100733.95;1700033;82;21104;-48
2021/07/03 09:33:50;;;;;;;6.78;5.92;;;;;;;29.59;50.04;100740.16;1673376;83;21052;-49
2021/07/03 09:36:28;;;;;;;6.25;5.65;;;;;;;29.61;50.00;100734.14;1667978;84;21072;-49
2021/07/03 09:38:57;;;;;;;6.20;5.65;;;;;;;29.63;50.24;100734.83;1573839;89;21074;-48
2021/07/03 09:41:38;;;;;;;5.90;5.37;;;;;;;29.65;50.27;100730.15;1561833;90;21222;-47
2021/07/03 09:44:09;;;;;;;6.35;5.75;;;;;;;29.72;50.01;100733.87;1533618;92;21103;-51
2021/07/03 09:46:53;;;;;;;5.97;5.45;;;;;;;29.72;49.69;100737.44;1543929;92;21044;-48
2021/07/03 09:51:55;;;;;;;6.40;5.83;;;;;;;29.73;49.87;100747.67;1458432;97;21166;-50
2021/07/03 09:54:24;;;;;;;10.50;5.92;;;;;;;29.73;49.83;100749.02;1442849;98;21650;-50
2021/07/03 09:56:58;;;;;;;9.53;6.83;;;;;;;29.70;49.91;100758.66;1428901;99;21148;-50
2021/07/03 09:59:36;;;;;;;6.72;5.97;;;;;;;29.67;50.07;100748.27;1400732;101;21661;-49
2021/07/03 10:02:03;;;;;;;8.53;6.42;;;;;;;29.68;50.17;100745.91;1423609;99;21229;-49
2021/07/03 10:04:30;;;;;;;10.68;7.58;;;;;;;29.64;50.58;100748.56;1421139;99;21158;-47
2021/07/03 10:07:05;;;;;;;12.35;7.62;;;;;;;29.59;50.63;100749.02;1433153;98;21110;-51
2021/07/03 10:09:39;;;;;;;7.05;6.40;;;;;;;29.59;50.43;100746.86;1432845;99;21171;-48
2021/07/03 10:12:13;;;;;;;7.25;5.97;;;;;;;29.60;50.38;100741.34;1420939;100;21117;-48
2021/07/03 10:14:46;;;;;;;6.00;5.45;;;;;;;29.57;49.48;100742.16;1420312;99;21171;-50
2021/07/03 10:17:24;;;;;;;;;;;;;;;29.52;50.19;100743.10;1457798;96;21170;-49
2021/07/03 10:19:52;;;;;;;6.37;5.75;;;;;;;29.51;50.64;100753.50;1462529;98;20420;-49
2021/07/03 10:22:23;;;;;;;6.53;5.95;;;;;;;29.50;50.35;100744.61;1450511;98;21179;-49
2021/07/03 10:25:15;;;;;;;6.25;5.60;;;;;;;29.51;50.51;100740.09;1433695;100;21163;-49
2021/07/03 10:27:54;;;;;;;5.67;5.20;;;;;;;29.50;50.30;100750.45;1472215;97;21118;-49
2021/07/03 10:30:32;;;;;;;8.08;5.22;;;;;;;29.45;49.86;100740.72;1475655;96;21145;-49
2021/07/03 10:33:09;;;;;;;6.28;5.78;;;;;;;29.40;50.45;100736.30;1452626;97;21166;-49
2021/07/03 10:35:49;;;;;;;6.65;5.92;;;;;;;29.40;50.99;100740.32;1451990;98;21276;-48
2021/07/03 10:38:27;;;;;;;8.08;5.50;;;;;;;29.42;51.06;100736.50;1455425;97;21120;-48
2021/07/03 10:41:20;;;;;;;5.35;4.95;;;;;;;29.47;50.39;100739.53;1448537;98;21109;-49
2021/07/03 10:43:52;;;;;;;5.10;4.60;;;;;;;29.51;50.03;100739.57;1430542;98;21142;-47
2021/07/03 10:46:40;;;;;;;;;;;;;;;;;;;;;
2021/07/03 10:50:24;;;;;;;7.12;5.95;;;;;;;29.47;49.64;100738.72;1325632;107;21627;-49
2021/07/03 10:52:53;;;;;;;5.85;5.25;;;;;;;29.49;49.84;100739.41;1323519;107;21113;-50
2021/07/03 10:55:36;;;;;;;5.87;5.37;;;;;;;29.54;49.91;100735.25;1332355;106;21332;-48
2021/07/03 10:58:20;;;;;;;6.03;4.90;;;;;;;29.57;49.80;100732.77;1326874;105;21146;-48
2021/07/03 11:00:51;;;;;;;5.70;4.60;;;;;;;29.61;49.37;100732.80;1328653;106;21130;-48
2021/07/03 11:03:23;;;;;;;5.20;4.70;;;;;;;29.61;49.41;100728.78;1329178;106;21220;-48
2021/07/03 11:05:51;;;;;;;5.30;4.80;;;;;;;29.66;49.45;100741.20;1324976;106;21203;-50
2021/07/03 11:08:20;;;;;;;6.35;5.05;;;;;;;29.70;49.28;100742.58;1294912;109;21764;-50
2021/07/03 11:10:49;;;;;;;4.45;4.05;;;;;;;29.76;48.79;100747.34;1290637;110;21293;-49
2021/07/03 11:13:24;;;;;;;4.12;3.83;;;;;;;29.83;46.89;100745.73;1306444;108;21207;-48
2021/07/03 11:15:51;;;;;;;6.03;4.72;;;;;;;29.86;46.60;100742.75;1304499;107;21246;-50
2021/07/03 11:18:18;;;;;;;3.77;3.40;;;;;;;29.88;46.61;100743.44;1306099;107;21216;-50
2021/07/03 11:20:45;;;;;;;3.90;3.60;;;;;;;29.90;46.56;100733.88;1311945;106;21157;-49
2021/07/03 11:23:12;;;;;;;3.58;3.35;;;;;;;29.90;46.34;100740.09;1325773;106;21209;-49
2021/07/03 11:25:42;;;;;;;6.00;3.70;;;;;;;29.89;46.48;100737.05;1337956;103;21203;-50
2021/07/03 11:28:18;;;;;;;3.77;3.20;;;;;;;29.91;46.25;100736.89;1362041;105;21155;-49
2021/07/03 11:30:58;;;;;;;3.75;3.45;;;;;;;29.94;46.09;100736.09;1338951;105;21995;-51
2021/07/03 11:33:32;;;;;;;3.80;3.50;;;;;;;29.96;45.62;100730.07;1345769;105;21252;-50